sensor_id;sensor_type;location;lat;lon;timestamp;pressure;altitude;pressure_sealevel;temperature;humidity
44027;BME280;29696;55.698;37.460;2022-09-12T00:03:52;99747.41;;;10.21;74.33
44027;BME280;29696;55.698;37.460;2022-09-12T00:06:25;99749.47;;;10.17;74.18
44027;BME280;29696;55.698;37.460;2022-09-12T00:08:57;99754.59;;;10.19;74.54
44027;BME280;29696;55.698;37.460;2022-09-12T00:11:24;99741.91;;;10.13;75.19
44027;BME280;29696;55.698;37.460;2022-09-12T00:13:55;99743.31;;;10.17;75.44
44027;BME280;29696;55.698;37.460;2022-09-12T00:16:24;99746.94;;;10.16;75.80
44027;BME280;29696;55.698;37.460;2022-09-12T00:18:51;99731.34;;;10.13;75.90
44027;BME280;29696;55.698;37.460;2022-09-12T00:21:19;99734.00;;;10.13;76.12
44027;BME280;29696;55.698;37.460;2022-09-12T00:23:46;99721.78;;;10.12;76.32
44027;BME280;29696;55.698;37.460;2022-09-12T00:26:13;99729.81;;;10.10;76.10
44027;BME280;29696;55.698;37.460;2022-09-12T00:28:41;99719.50;;;10.07;75.78
44027;BME280;29696;55.698;37.460;2022-09-12T00:31:10;99718.56;;;10.08;76.79
44027;BME280;29696;55.698;37.460;2022-09-12T00:33:37;99720.16;;;9.99;77.06
44027;BME280;29696;55.698;37.460;2022-09-12T00:36:07;99728.66;;;10.03;77.78
44027;BME280;29696;55.698;37.460;2022-09-12T00:38:34;99715.13;;;9.96;77.59
44027;BME280;29696;55.698;37.460;2022-09-12T00:41:05;99709.84;;;9.96;77.08
44027;BME280;29696;55.698;37.460;2022-09-12T00:43:40;99718.22;;;10.01;76.69
44027;BME280;29696;55.698;37.460;2022-09-12T00:55:22;99711.81;;;9.83;76.80
44027;BME280;29696;55.698;37.460;2022-09-12T00:58:16;99716.47;;;9.91;77.53
44027;BME280;29696;55.698;37.460;2022-09-12T01:00:44;99714.41;;;9.73;77.07
44027;BME280;29696;55.698;37.460;2022-09-12T01:03:16;99712.72;;;9.72;77.28
44027;BME280;29696;55.698;37.460;2022-09-12T01:05:56;99719.41;;;9.76;77.38
44027;BME280;29696;55.698;37.460;2022-09-12T01:08:25;99713.22;;;9.66;76.96
44027;BME280;29696;55.698;37.460;2022-09-12T01:10:52;99710.47;;;9.68;77.29
44027;BME280;29696;55.698;37.460;2022-09-12T01:13:19;99707.09;;;9.66;76.96
44027;BME280;29696;55.698;37.460;2022-09-12T01:15:45;99699.19;;;9.66;77.05
44027;BME280;29696;55.698;37.460;2022-09-12T01:18:44;99706.81;;;9.80;77.14
44027;BME280;29696;55.698;37.460;2022-09-12T01:21:49;99699.97;;;9.77;77.10
44027;BME280;29696;55.698;37.460;2022-09-12T01:31:08;99698.31;;;9.76;77.90
44027;BME280;29696;55.698;37.460;2022-09-12T01:37:25;99694.84;;;9.76;77.90
44027;BME280;29696;55.698;37.460;2022-09-12T01:40:25;99692.56;;;9.71;77.87
44027;BME280;29696;55.698;37.460;2022-09-12T01:43:27;99705.06;;;9.69;77.47
44027;BME280;29696;55.698;37.460;2022-09-12T01:46:12;99688.63;;;9.66;77.57
44027;BME280;29696;55.698;37.460;2022-09-12T01:48:46;99696.81;;;9.63;78.02
44027;BME280;29696;55.698;37.460;2022-09-12T01:51:22;99694.88;;;9.65;78.26
44027;BME280;29696;55.698;37.460;2022-09-12T01:53:54;99699.31;;;9.64;78.42
44027;BME280;29696;55.698;37.460;2022-09-12T01:56:26;99690.84;;;9.60;78.75
44027;BME280;29696;55.698;37.460;2022-09-12T01:59:22;99701.31;;;9.72;79.21
44027;BME280;29696;55.698;37.460;2022-09-12T02:01:57;99689.97;;;9.60;78.61
44027;BME280;29696;55.698;37.460;2022-09-12T02:04:32;99700.03;;;9.66;79.23
44027;BME280;29696;55.698;37.460;2022-09-12T02:07:07;99688.78;;;9.64;78.63
44027;BME280;29696;55.698;37.460;2022-09-12T02:09:45;99700.16;;;9.65;79.08
44027;BME280;29696;55.698;37.460;2022-09-12T02:12:15;99700.16;;;9.65;79.31
44027;BME280;29696;55.698;37.460;2022-09-12T02:14:56;99687.44;;;9.70;79.13
44027;BME280;29696;55.698;37.460;2022-09-12T02:17:25;99690.13;;;9.58;78.54
44027;BME280;29696;55.698;37.460;2022-09-12T02:19:55;99682.41;;;9.67;78.95
44027;BME280;29696;55.698;37.460;2022-09-12T02:22:26;99693.06;;;9.65;79.09
44027;BME280;29696;55.698;37.460;2022-09-12T02:24:57;99690.31;;;9.67;79.19
44027;BME280;29696;55.698;37.460;2022-09-12T02:27:37;99681.06;;;9.72;79.46
44027;BME280;29696;55.698;37.460;2022-09-12T02:30:06;99678.34;;;9.63;79.22
44027;BME280;29696;55.698;37.460;2022-09-12T02:32:42;99670.16;;;9.66;79.38
44027;BME280;29696;55.698;37.460;2022-09-12T02:35:29;99676.53;;;9.63;79.57
44027;BME280;29696;55.698;37.460;2022-09-12T02:41:11;99681.94;;;9.62;78.93
44027;BME280;29696;55.698;37.460;2022-09-12T02:43:39;99675.13;;;9.59;79.13
44027;BME280;29696;55.698;37.460;2022-09-12T02:46:09;99690.94;;;9.59;78.88
44027;BME280;29696;55.698;37.460;2022-09-12T02:48:41;99689.13;;;9.59;78.97
44027;BME280;29696;55.698;37.460;2022-09-12T02:51:10;99687.47;;;9.58;79.18
44027;BME280;29696;55.698;37.460;2022-09-12T02:53:36;99688.97;;;9.51;79.19
44027;BME280;29696;55.698;37.460;2022-09-12T02:56:07;99695.75;;;9.54;79.52
44027;BME280;29696;55.698;37.460;2022-09-12T02:58:36;99692.53;;;9.50;79.50
44027;BME280;29696;55.698;37.460;2022-09-12T03:13:35;99689.69;;;9.42;80.65
44027;BME280;29696;55.698;37.460;2022-09-12T03:20:49;99692.06;;;9.45;81.36
44027;BME280;29696;55.698;37.460;2022-09-12T03:23:04;99692.22;;;9.44;81.07
44027;BME280;29696;55.698;37.460;2022-09-12T03:25:39;99698.22;;;9.34;81.03
44027;BME280;29696;55.698;37.460;2022-09-12T03:28:11;99695.72;;;9.33;81.53
44027;BME280;29696;55.698;37.460;2022-09-12T03:30:41;99695.97;;;9.30;81.58
44027;BME280;29696;55.698;37.460;2022-09-12T03:33:12;99699.31;;;9.32;81.54
44027;BME280;29696;55.698;37.460;2022-09-12T03:35:39;99702.19;;;9.29;81.32
44027;BME280;29696;55.698;37.460;2022-09-12T03:38:05;99697.75;;;9.29;81.49
44027;BME280;29696;55.698;37.460;2022-09-12T03:40:34;99700.28;;;9.31;81.47
44027;BME280;29696;55.698;37.460;2022-09-12T03:43:00;99697.91;;;9.28;81.07
44027;BME280;29696;55.698;37.460;2022-09-12T03:45:27;99690.69;;;9.30;81.27
44027;BME280;29696;55.698;37.460;2022-09-12T03:47:53;99691.53;;;9.30;81.23
44027;BME280;29696;55.698;37.460;2022-09-12T03:50:20;99682.41;;;9.34;81.18
44027;BME280;29696;55.698;37.460;2022-09-12T03:52:46;99689.75;;;9.31;80.28
44027;BME280;29696;55.698;37.460;2022-09-12T03:55:12;99681.44;;;9.35;80.58
44027;BME280;29696;55.698;37.460;2022-09-12T03:57:39;99682.66;;;9.31;80.37
44027;BME280;29696;55.698;37.460;2022-09-12T04:00:06;99690.31;;;9.34;80.63
44027;BME280;29696;55.698;37.460;2022-09-12T04:02:39;99673.91;;;9.31;80.49
44027;BME280;29696;55.698;37.460;2022-09-12T04:05:05;99677.97;;;9.35;80.82
44027;BME280;29696;55.698;37.460;2022-09-12T04:07:31;99686.59;;;9.37;80.85
44027;BME280;29696;55.698;37.460;2022-09-12T04:09:58;99685.88;;;9.35;80.62
44027;BME280;29696;55.698;37.460;2022-09-12T04:12:24;99678.94;;;9.34;80.28
44027;BME280;29696;55.698;37.460;2022-09-12T04:14:50;99670.06;;;9.35;79.92
44027;BME280;29696;55.698;37.460;2022-09-12T04:17:16;99683.00;;;9.38;79.55
44027;BME280;29696;55.698;37.460;2022-09-12T04:19:43;99675.81;;;9.40;79.65
44027;BME280;29696;55.698;37.460;2022-09-12T04:22:09;99676.50;;;9.42;79.35
44027;BME280;29696;55.698;37.460;2022-09-12T04:24:35;99662.84;;;9.48;79.79
44027;BME280;29696;55.698;37.460;2022-09-12T04:27:01;99678.41;;;9.51;79.96
44027;BME280;29696;55.698;37.460;2022-09-12T04:29:28;99678.25;;;9.53;79.76
44027;BME280;29696;55.698;37.460;2022-09-12T04:31:55;99677.44;;;9.52;80.65
44027;BME280;29696;55.698;37.460;2022-09-12T04:34:21;99690.63;;;9.52;80.24
44027;BME280;29696;55.698;37.460;2022-09-12T04:36:48;99685.19;;;9.54;80.25
44027;BME280;29696;55.698;37.460;2022-09-12T04:39:14;99682.81;;;9.51;80.03
44027;BME280;29696;55.698;37.460;2022-09-12T04:41:42;99682.72;;;9.52;80.51
44027;BME280;29696;55.698;37.460;2022-09-12T04:44:12;99682.91;;;9.60;80.80
44027;BME280;29696;55.698;37.460;2022-09-12T04:46:42;99680.41;;;9.59;80.48
44027;BME280;29696;55.698;37.460;2022-09-12T04:49:10;99683.19;;;9.57;80.40
44027;BME280;29696;55.698;37.460;2022-09-12T04:51:38;99670.81;;;9.58;80.49
44027;BME280;29696;55.698;37.460;2022-09-12T04:54:09;99678.06;;;9.66;81.13
44027;BME280;29696;55.698;37.460;2022-09-12T04:56:37;99680.59;;;9.67;81.26
44027;BME280;29696;55.698;37.460;2022-09-12T04:59:05;99684.06;;;9.68;80.32
44027;BME280;29696;55.698;37.460;2022-09-12T05:01:32;99680.47;;;9.69;80.12
44027;BME280;29696;55.698;37.460;2022-09-12T05:03:58;99679.94;;;9.75;80.33
44027;BME280;29696;55.698;37.460;2022-09-12T05:06:31;99679.44;;;9.81;79.65
44027;BME280;29696;55.698;37.460;2022-09-12T05:09:00;99678.50;;;9.82;79.88
44027;BME280;29696;55.698;37.460;2022-09-12T05:11:33;99690.19;;;9.89;79.46
44027;BME280;29696;55.698;37.460;2022-09-12T05:14:00;99678.25;;;9.85;78.95
44027;BME280;29696;55.698;37.460;2022-09-12T05:16:27;99685.63;;;9.91;78.98
44027;BME280;29696;55.698;37.460;2022-09-12T05:18:55;99673.72;;;9.97;79.00
44027;BME280;29696;55.698;37.460;2022-09-12T05:21:23;99676.13;;;10.00;78.11
44027;BME280;29696;55.698;37.460;2022-09-12T05:23:51;99677.97;;;10.09;79.33
44027;BME280;29696;55.698;37.460;2022-09-12T05:26:18;99684.88;;;10.00;78.58
44027;BME280;29696;55.698;37.460;2022-09-12T05:28:46;99667.78;;;10.04;78.74
44027;BME280;29696;55.698;37.460;2022-09-12T05:31:16;99674.66;;;10.17;79.62
44027;BME280;29696;55.698;37.460;2022-09-12T05:33:45;99690.63;;;10.26;78.66
44027;BME280;29696;55.698;37.460;2022-09-12T05:36:26;99674.38;;;10.31;78.20
44027;BME280;29696;55.698;37.460;2022-09-12T05:38:54;99676.63;;;10.36;78.49
44027;BME280;29696;55.698;37.460;2022-09-12T05:41:26;99668.63;;;10.47;78.51
44027;BME280;29696;55.698;37.460;2022-09-12T05:43:56;99678.22;;;10.48;77.52
44027;BME280;29696;55.698;37.460;2022-09-12T05:46:25;99678.50;;;10.55;77.83
44027;BME280;29696;55.698;37.460;2022-09-12T05:48:52;99674.47;;;10.50;76.82
44027;BME280;29696;55.698;37.460;2022-09-12T05:51:25;99677.38;;;10.47;76.41
44027;BME280;29696;55.698;37.460;2022-09-12T05:53:57;99676.53;;;10.47;76.35
44027;BME280;29696;55.698;37.460;2022-09-12T05:56:25;99668.22;;;10.51;76.70
44027;BME280;29696;55.698;37.460;2022-09-12T06:01:41;99657.00;;;10.59;76.85
44027;BME280;29696;55.698;37.460;2022-09-12T06:04:07;99658.00;;;10.68;76.06
44027;BME280;29696;55.698;37.460;2022-09-12T06:06:36;99655.38;;;10.78;75.05
44027;BME280;29696;55.698;37.460;2022-09-12T06:09:04;99663.06;;;10.90;75.72
44027;BME280;29696;55.698;37.460;2022-09-12T06:11:32;99663.06;;;11.00;75.09
44027;BME280;29696;55.698;37.460;2022-09-12T06:14:00;99653.34;;;11.10;74.12
44027;BME280;29696;55.698;37.460;2022-09-12T06:16:29;99656.72;;;11.22;73.80
44027;BME280;29696;55.698;37.460;2022-09-12T06:18:57;99650.72;;;11.39;73.69
44027;BME280;29696;55.698;37.460;2022-09-12T06:21:25;99651.16;;;11.64;72.89
44027;BME280;29696;55.698;37.460;2022-09-12T06:23:54;99647.22;;;11.87;71.56
44027;BME280;29696;55.698;37.460;2022-09-12T06:26:21;99642.19;;;12.04;71.03
44027;BME280;29696;55.698;37.460;2022-09-12T06:28:52;99658.16;;;12.31;69.45
44027;BME280;29696;55.698;37.460;2022-09-12T06:31:24;99644.59;;;12.34;69.43
44027;BME280;29696;55.698;37.460;2022-09-12T06:33:52;99654.91;;;12.38;69.18
44027;BME280;29696;55.698;37.460;2022-09-12T06:39:10;99654.91;;;12.38;69.32
44027;BME280;29696;55.698;37.460;2022-09-12T06:41:37;99654.09;;;12.37;69.32
44027;BME280;29696;55.698;37.460;2022-09-12T06:44:04;99652.97;;;12.40;68.85
44027;BME280;29696;55.698;37.460;2022-09-12T06:46:32;99661.50;;;12.33;67.99
44027;BME280;29696;55.698;37.460;2022-09-12T06:48:59;99663.31;;;12.23;68.38
44027;BME280;29696;55.698;37.460;2022-09-12T06:51:27;99663.19;;;12.25;69.52
44027;BME280;29696;55.698;37.460;2022-09-12T06:53:55;99654.81;;;12.29;69.39
44027;BME280;29696;55.698;37.460;2022-09-12T06:56:24;99649.63;;;12.38;68.74
44027;BME280;29696;55.698;37.460;2022-09-12T06:58:52;99658.84;;;12.33;68.12
44027;BME280;29696;55.698;37.460;2022-09-12T07:01:29;99658.47;;;12.56;68.62
44027;BME280;29696;55.698;37.460;2022-09-12T07:03:58;99654.56;;;12.60;66.78
44027;BME280;29696;55.698;37.460;2022-09-12T07:06:27;99670.75;;;12.57;67.40
44027;BME280;29696;55.698;37.460;2022-09-12T07:08:58;99672.28;;;12.50;66.72
44027;BME280;29696;55.698;37.460;2022-09-12T07:11:27;99674.25;;;12.57;67.46
44027;BME280;29696;55.698;37.460;2022-09-12T07:13:55;99676.72;;;12.59;66.58
44027;BME280;29696;55.698;37.460;2022-09-12T07:16:22;99663.75;;;12.66;67.00
44027;BME280;29696;55.698;37.460;2022-09-12T07:18:56;99667.75;;;12.70;66.08
44027;BME280;29696;55.698;37.460;2022-09-12T07:21:22;99669.34;;;12.63;65.46
44027;BME280;29696;55.698;37.460;2022-09-12T07:23:49;99679.66;;;12.56;66.35
44027;BME280;29696;55.698;37.460;2022-09-12T07:26:17;99683.91;;;12.49;66.28
44027;BME280;29696;55.698;37.460;2022-09-12T07:28:43;99674.13;;;12.49;66.37
44027;BME280;29696;55.698;37.460;2022-09-12T07:31:16;99676.78;;;12.49;66.93
44027;BME280;29696;55.698;37.460;2022-09-12T07:33:43;99664.13;;;12.33;66.84
44027;BME280;29696;55.698;37.460;2022-09-12T07:36:11;99684.31;;;12.44;66.91
44027;BME280;29696;55.698;37.460;2022-09-12T07:38:38;99669.97;;;12.37;66.11
44027;BME280;29696;55.698;37.460;2022-09-12T07:41:17;99695.19;;;12.51;66.45
44027;BME280;29696;55.698;37.460;2022-09-12T07:43:44;99667.09;;;12.30;66.55
44027;BME280;29696;55.698;37.460;2022-09-12T07:46:10;99691.75;;;12.31;66.49
44027;BME280;29696;55.698;37.460;2022-09-12T07:48:37;99690.63;;;12.33;67.18
44027;BME280;29696;55.698;37.460;2022-09-12T07:51:06;99685.75;;;12.29;67.09
44027;BME280;29696;55.698;37.460;2022-09-12T07:53:39;99701.66;;;12.29;67.72
44027;BME280;29696;55.698;37.460;2022-09-12T07:56:07;99697.38;;;12.18;67.56
44027;BME280;29696;55.698;37.460;2022-09-12T07:58:36;99698.34;;;12.07;67.94
44027;BME280;29696;55.698;37.460;2022-09-12T08:01:04;99689.00;;;12.13;67.83
44027;BME280;29696;55.698;37.460;2022-09-12T08:03:30;99702.13;;;12.15;67.54
44027;BME280;29696;55.698;37.460;2022-09-12T08:06:05;99684.50;;;12.23;67.50
44027;BME280;29696;55.698;37.460;2022-09-12T08:08:31;99688.19;;;12.13;67.21
44027;BME280;29696;55.698;37.460;2022-09-12T08:11:00;99681.03;;;12.23;67.52
44027;BME280;29696;55.698;37.460;2022-09-12T08:13:28;99720.06;;;12.30;67.02
44027;BME280;29696;55.698;37.460;2022-09-12T08:15:58;99701.78;;;12.37;67.46
44027;BME280;29696;55.698;37.460;2022-09-12T08:18:29;99685.75;;;12.39;67.20
44027;BME280;29696;55.698;37.460;2022-09-12T08:21:01;99699.84;;;12.39;67.56
44027;BME280;29696;55.698;37.460;2022-09-12T08:23:28;99682.13;;;12.40;67.37
44027;BME280;29696;55.698;37.460;2022-09-12T08:26:03;99713.47;;;12.54;66.88
44027;BME280;29696;55.698;37.460;2022-09-12T08:28:31;99683.66;;;12.42;66.63
44027;BME280;29696;55.698;37.460;2022-09-12T08:31:06;99687.91;;;12.53;66.45
44027;BME280;29696;55.698;37.460;2022-09-12T08:33:33;99706.53;;;12.33;66.03
44027;BME280;29696;55.698;37.460;2022-09-12T08:36:11;99702.31;;;12.41;66.77
44027;BME280;29696;55.698;37.460;2022-09-12T08:38:44;99700.44;;;12.14;66.47
44027;BME280;29696;55.698;37.460;2022-09-12T08:41:44;99689.53;;;12.26;66.92
44027;BME280;29696;55.698;37.460;2022-09-12T08:44:21;99694.47;;;12.12;66.47
44027;BME280;29696;55.698;37.460;2022-09-12T08:50:18;99709.66;;;12.09;66.50
44027;BME280;29696;55.698;37.460;2022-09-12T08:53:10;99707.50;;;12.42;65.84
44027;BME280;29696;55.698;37.460;2022-09-12T08:55:46;99697.03;;;12.41;65.18
44027;BME280;29696;55.698;37.460;2022-09-12T08:58:20;99683.31;;;12.55;64.77
44027;BME280;29696;55.698;37.460;2022-09-12T09:01:10;99703.88;;;12.81;63.94
44027;BME280;29696;55.698;37.460;2022-09-12T09:10:48;99680.56;;;13.30;62.43
44027;BME280;29696;55.698;37.460;2022-09-12T09:16:48;99672.00;;;13.36;61.17
44027;BME280;29696;55.698;37.460;2022-09-12T09:19:30;99701.22;;;13.54;60.80
44027;BME280;29696;55.698;37.460;2022-09-12T09:22:03;99681.31;;;13.40;61.37
44027;BME280;29696;55.698;37.460;2022-09-12T09:24:38;99682.31;;;13.39;60.98
44027;BME280;29696;55.698;37.460;2022-09-12T09:27:19;99673.91;;;13.43;61.02
44027;BME280;29696;55.698;37.460;2022-09-12T09:29:52;99680.06;;;13.44;61.27
44027;BME280;29696;55.698;37.460;2022-09-12T09:32:48;99669.50;;;13.70;61.13
44027;BME280;29696;55.698;37.460;2022-09-12T09:36:17;99667.50;;;13.90;60.08
44027;BME280;29696;55.698;37.460;2022-09-12T09:39:12;99661.63;;;14.04;60.05
44027;BME280;29696;55.698;37.460;2022-09-12T09:42:18;99675.28;;;14.09;57.68
44027;BME280;29696;55.698;37.460;2022-09-12T09:44:51;99673.03;;;13.79;58.09
44027;BME280;29696;55.698;37.460;2022-09-12T09:47:19;99671.38;;;13.78;58.00
44027;BME280;29696;55.698;37.460;2022-09-12T09:49:45;99679.50;;;13.94;57.05
44027;BME280;29696;55.698;37.460;2022-09-12T09:52:15;99686.91;;;13.90;56.54
44027;BME280;29696;55.698;37.460;2022-09-12T09:54:55;99683.41;;;14.08;55.94
44027;BME280;29696;55.698;37.460;2022-09-12T09:57:54;99679.16;;;14.15;55.87
44027;BME280;29696;55.698;37.460;2022-09-12T10:00:24;99689.63;;;13.99;56.21
44027;BME280;29696;55.698;37.460;2022-09-12T10:06:30;99688.66;;;14.26;56.41
44027;BME280;29696;55.698;37.460;2022-09-12T10:09:27;99677.03;;;14.27;55.34
44027;BME280;29696;55.698;37.460;2022-09-12T10:11:54;99690.88;;;14.30;54.92
44027;BME280;29696;55.698;37.460;2022-09-12T10:17:40;99693.09;;;14.43;55.06
44027;BME280;29696;55.698;37.460;2022-09-12T10:20:37;99666.13;;;14.38;55.01
44027;BME280;29696;55.698;37.460;2022-09-12T10:23:34;99678.78;;;14.36;55.09
44027;BME280;29696;55.698;37.460;2022-09-12T10:26:07;99682.31;;;14.19;55.09
44027;BME280;29696;55.698;37.460;2022-09-12T10:31:28;99686.88;;;14.08;55.35
44027;BME280;29696;55.698;37.460;2022-09-12T10:34:04;99661.94;;;14.01;55.27
44027;BME280;29696;55.698;37.460;2022-09-12T10:36:37;99682.16;;;14.20;55.71
44027;BME280;29696;55.698;37.460;2022-09-12T10:39:05;99679.31;;;14.48;55.06
44027;BME280;29696;55.698;37.460;2022-09-12T10:41:38;99695.94;;;14.24;54.36
44027;BME280;29696;55.698;37.460;2022-09-12T10:44:17;99666.50;;;14.17;55.77
44027;BME280;29696;55.698;37.460;2022-09-12T10:46:49;99661.31;;;14.07;54.96
44027;BME280;29696;55.698;37.460;2022-09-12T10:49:29;99667.41;;;14.26;55.65
44027;BME280;29696;55.698;37.460;2022-09-12T10:52:15;99667.78;;;14.31;55.54
44027;BME280;29696;55.698;37.460;2022-09-12T10:54:42;99683.41;;;14.08;55.24
44027;BME280;29696;55.698;37.460;2022-09-12T10:57:42;99677.03;;;14.27;55.68
44027;BME280;29696;55.698;37.460;2022-09-12T11:00:13;99676.56;;;14.05;55.60
44027;BME280;29696;55.698;37.460;2022-09-12T11:03:15;99672.56;;;14.27;55.51
44027;BME280;29696;55.698;37.460;2022-09-12T11:06:07;99695.19;;;14.31;54.91
44027;BME280;29696;55.698;37.460;2022-09-12T11:12:31;99671.97;;;14.42;55.43
44027;BME280;29696;55.698;37.460;2022-09-12T11:15:25;99665.28;;;14.55;55.13
44027;BME280;29696;55.698;37.460;2022-09-12T11:18:01;99663.31;;;14.66;54.56
44027;BME280;29696;55.698;37.460;2022-09-12T11:20:47;99657.66;;;14.69;54.07
44027;BME280;29696;55.698;37.460;2022-09-12T11:24:52;99677.34;;;14.76;53.07
44027;BME280;29696;55.698;37.460;2022-09-12T11:27:22;99674.50;;;14.69;53.39
44027;BME280;29696;55.698;37.460;2022-09-12T11:30:07;99661.19;;;14.69;53.65
44027;BME280;29696;55.698;37.460;2022-09-12T11:40:58;99642.72;;;15.43;51.97
44027;BME280;29696;55.698;37.460;2022-09-12T11:47:04;99648.72;;;15.61;50.97
44027;BME280;29696;55.698;37.460;2022-09-12T11:49:38;99648.41;;;15.48;51.34
44027;BME280;29696;55.698;37.460;2022-09-12T11:57:55;99649.47;;;14.96;52.18
44027;BME280;29696;55.698;37.460;2022-09-12T12:00:26;99649.59;;;14.78;51.35
44027;BME280;29696;55.698;37.460;2022-09-12T12:06:24;99632.53;;;14.55;52.69
44027;BME280;29696;55.698;37.460;2022-09-12T12:08:52;99642.66;;;14.25;52.86
44027;BME280;29696;55.698;37.460;2022-09-12T12:11:49;99656.81;;;14.34;53.00
44027;BME280;29696;55.698;37.460;2022-09-12T12:14:25;99642.34;;;14.02;53.44
44027;BME280;29696;55.698;37.460;2022-09-12T12:16:56;99625.47;;;13.85;53.47
44027;BME280;29696;55.698;37.460;2022-09-12T12:20:02;99651.38;;;14.09;53.76
44027;BME280;29696;55.698;37.460;2022-09-12T12:22:30;99634.16;;;13.96;53.59
44027;BME280;29696;55.698;37.460;2022-09-12T12:28:03;99649.81;;;13.81;53.04
44027;BME280;29696;55.698;37.460;2022-09-12T12:34:06;99630.78;;;13.85;54.29
44027;BME280;29696;55.698;37.460;2022-09-12T12:51:59;99614.50;;;14.14;52.87
44027;BME280;29696;55.698;37.460;2022-09-12T12:54:47;99613.72;;;14.22;52.98
44027;BME280;29696;55.698;37.460;2022-09-12T12:57:18;99615.88;;;14.19;52.91
44027;BME280;29696;55.698;37.460;2022-09-12T12:59:51;99613.25;;;14.27;53.11
44027;BME280;29696;55.698;37.460;2022-09-12T13:02:31;99623.28;;;14.33;52.37
44027;BME280;29696;55.698;37.460;2022-09-12T13:05:02;99606.13;;;14.27;52.04
44027;BME280;29696;55.698;37.460;2022-09-12T13:07:36;99624.09;;;14.33;52.51
44027;BME280;29696;55.698;37.460;2022-09-12T13:10:06;99612.59;;;14.25;52.53
44027;BME280;29696;55.698;37.460;2022-09-12T13:12:36;99618.03;;;14.23;52.37
44027;BME280;29696;55.698;37.460;2022-09-12T13:18:31;99612.72;;;14.15;52.04
44027;BME280;29696;55.698;37.460;2022-09-12T13:21:13;99600.25;;;14.15;52.31
44027;BME280;29696;55.698;37.460;2022-09-12T13:23:40;99611.66;;;14.08;52.30
44027;BME280;29696;55.698;37.460;2022-09-12T13:26:21;99644.38;;;14.08;52.53
44027;BME280;29696;55.698;37.460;2022-09-12T13:28:48;99605.97;;;13.77;52.73
44027;BME280;29696;55.698;37.460;2022-09-12T13:31:26;99620.91;;;13.78;53.13
44027;BME280;29696;55.698;37.460;2022-09-12T13:33:58;99621.72;;;13.70;53.49
44027;BME280;29696;55.698;37.460;2022-09-12T13:36:56;99615.81;;;13.84;52.98
44027;BME280;29696;55.698;37.460;2022-09-12T13:42:46;99610.09;;;13.71;53.61
44027;BME280;29696;55.698;37.460;2022-09-12T13:45:39;99616.13;;;13.81;53.43
44027;BME280;29696;55.698;37.460;2022-09-12T13:48:21;99612.25;;;13.76;53.81
44027;BME280;29696;55.698;37.460;2022-09-12T13:51:18;99610.19;;;13.87;53.86
44027;BME280;29696;55.698;37.460;2022-09-12T13:53:46;99606.94;;;13.76;52.90
44027;BME280;29696;55.698;37.460;2022-09-12T13:56:17;99606.19;;;13.83;53.21
44027;BME280;29696;55.698;37.460;2022-09-12T13:59:10;99599.13;;;13.92;52.49
44027;BME280;29696;55.698;37.460;2022-09-12T14:01:58;99603.38;;;13.85;52.55
44027;BME280;29696;55.698;37.460;2022-09-12T14:04:25;99604.03;;;13.61;52.88
44027;BME280;29696;55.698;37.460;2022-09-12T14:07:21;99608.38;;;13.62;53.27
44027;BME280;29696;55.698;37.460;2022-09-12T14:09:53;99601.53;;;13.59;53.42
44027;BME280;29696;55.698;37.460;2022-09-12T14:12:31;99617.09;;;13.54;53.50
44027;BME280;29696;55.698;37.460;2022-09-12T14:15:00;99610.53;;;13.40;53.80
44027;BME280;29696;55.698;37.460;2022-09-12T14:17:34;99606.03;;;13.41;53.95
44027;BME280;29696;55.698;37.460;2022-09-12T14:20:05;99640.97;;;13.36;54.13
44027;BME280;29696;55.698;37.460;2022-09-12T14:22:33;99619.53;;;13.30;54.26
44027;BME280;29696;55.698;37.460;2022-09-12T14:25:01;99616.75;;;13.31;54.55
44027;BME280;29696;55.698;37.460;2022-09-12T14:27:40;99614.31;;;13.38;54.43
44027;BME280;29696;55.698;37.460;2022-09-12T14:30:31;99607.38;;;13.45;54.47
44027;BME280;29696;55.698;37.460;2022-09-12T14:33:25;99614.22;;;13.47;54.10
44027;BME280;29696;55.698;37.460;2022-09-12T14:36:07;99623.19;;;13.46;54.08
44027;BME280;29696;55.698;37.460;2022-09-12T14:38:39;99622.88;;;13.32;54.34
44027;BME280;29696;55.698;37.460;2022-09-12T14:41:08;99611.72;;;13.28;54.80
44027;BME280;29696;55.698;37.460;2022-09-12T14:43:37;99621.50;;;13.28;54.52
44027;BME280;29696;55.698;37.460;2022-09-12T14:46:20;99618.41;;;13.32;54.99
44027;BME280;29696;55.698;37.460;2022-09-12T14:48:53;99630.44;;;13.27;54.88
44027;BME280;29696;55.698;37.460;2022-09-12T14:51:34;99621.19;;;13.31;55.16
44027;BME280;29696;55.698;37.460;2022-09-12T14:54:02;99624.72;;;13.21;54.86
44027;BME280;29696;55.698;37.460;2022-09-12T14:56:40;99618.53;;;13.31;55.43
44027;BME280;29696;55.698;37.460;2022-09-12T14:59:27;99626.66;;;13.29;55.22
44027;BME280;29696;55.698;37.460;2022-09-12T15:02:32;99625.13;;;13.27;55.29
44027;BME280;29696;55.698;37.460;2022-09-12T15:05:25;99624.19;;;13.18;55.55
44027;BME280;29696;55.698;37.460;2022-09-12T15:07:55;99625.84;;;13.01;56.29
44027;BME280;29696;55.698;37.460;2022-09-12T15:10:30;99625.31;;;12.97;56.05
44027;BME280;29696;55.698;37.460;2022-09-12T15:13:25;99628.19;;;13.04;56.47
44027;BME280;29696;55.698;37.460;2022-09-12T15:16:13;99634.78;;;13.00;56.13
44027;BME280;29696;55.698;37.460;2022-09-12T15:18:39;99624.16;;;12.82;56.29
44027;BME280;29696;55.698;37.460;2022-09-12T15:21:09;99623.63;;;12.78;56.51
44027;BME280;29696;55.698;37.460;2022-09-12T15:23:45;99630.75;;;12.78;56.63
44027;BME280;29696;55.698;37.460;2022-09-12T15:26:18;99630.22;;;12.74;56.90
44027;BME280;29696;55.698;37.460;2022-09-12T15:28:45;99637.38;;;12.64;57.38
44027;BME280;29696;55.698;37.460;2022-09-12T15:31:31;99646.69;;;12.68;57.11
44027;BME280;29696;55.698;37.460;2022-09-12T15:33:59;99640.91;;;12.55;57.46